createdAt,value
2018-05-09T00:00:27.526Z,67.50
2018-05-09T00:02:28.533Z,67.50
2018-05-09T00:04:30.534Z,67.80
2018-05-09T00:06:31.530Z,68.00
2018-05-09T00:08:39.688Z,67.90
2018-05-09T00:10:40.674Z,67.60
2018-05-09T00:12:41.914Z,67.90
2018-05-09T00:14:42.918Z,67.90
2018-05-09T00:16:44.048Z,67.80
2018-05-09T00:18:45.230Z,67.70
2018-05-09T00:20:47.297Z,67.90
2018-05-09T00:22:48.263Z,68.00
2018-05-09T00:24:49.623Z,67.60
2018-05-09T00:26:50.889Z,67.60
2018-05-09T00:28:52.512Z,67.80
2018-05-09T00:30:53.541Z,67.80
2018-05-09T00:32:54.763Z,67.50
2018-05-09T00:34:55.763Z,68.00
2018-05-09T00:36:57.027Z,67.90
2018-05-09T00:38:58.539Z,67.60
2018-05-09T00:40:59.744Z,67.40
2018-05-09T00:43:01.522Z,67.40
2018-05-09T00:45:03.154Z,67.40
2018-05-09T00:47:04.686Z,67.30
2018-05-09T00:49:06.176Z,67.30
2018-05-09T00:51:07.160Z,67.30
2018-05-09T00:53:08.595Z,67.20
2018-05-09T00:55:09.702Z,67.20
2018-05-09T00:57:11.434Z,67.40
2018-05-09T00:59:12.421Z,67.20
2018-05-09T01:01:13.385Z,67.30
2018-05-09T01:03:14.758Z,67.30
2018-05-09T01:05:15.731Z,67.40
2018-05-09T01:07:16.777Z,67.30
2018-05-09T01:09:18.147Z,67.10
2018-05-09T01:11:19.142Z,67.10
2018-05-09T01:13:20.125Z,67.30
2018-05-09T01:15:21.431Z,67.30
2018-05-09T01:17:22.414Z,67.00
2018-05-09T01:19:23.387Z,67.00
2018-05-09T01:21:24.391Z,67.20
2018-05-09T01:23:25.382Z,67.10
2018-05-09T01:25:26.751Z,66.70
2018-05-09T01:27:27.727Z,66.70
2018-05-09T01:29:28.708Z,66.90
2018-05-09T01:31:30.066Z,67.00
2018-05-09T01:33:31.064Z,67.00
2018-05-09T01:35:32.053Z,67.60
2018-05-09T01:37:33.023Z,67.40
2018-05-09T01:39:33.986Z,67.50
2018-05-09T01:41:35.315Z,67.70
2018-05-09T01:43:36.302Z,67.70
2018-05-09T01:45:37.289Z,67.90
2018-05-09T01:47:38.655Z,67.80
2018-05-09T01:49:39.643Z,67.80
2018-05-09T01:51:40.659Z,67.70
2018-05-09T01:53:41.681Z,67.80
2018-05-09T01:55:42.647Z,67.60
2018-05-09T01:57:43.634Z,67.50
2018-05-09T01:59:44.627Z,67.70
2018-05-09T02:01:45.632Z,67.80
2018-05-09T02:03:46.625Z,67.90
2018-05-09T02:05:47.962Z,67.90
2018-05-09T02:07:49.323Z,68.00
2018-05-09T02:09:50.325Z,68.00
2018-05-09T02:11:51.286Z,68.10
2018-05-09T02:13:52.646Z,67.70
2018-05-09T02:15:53.750Z,67.70
2018-05-09T02:17:55.094Z,67.30
2018-05-09T02:19:56.462Z,67.70
2018-05-09T02:21:57.466Z,67.70
2018-05-09T02:23:58.876Z,67.50
2018-05-09T02:25:59.775Z,67.50
2018-05-09T02:28:00.756Z,67.30
2018-05-09T02:30:01.760Z,67.50
2018-05-09T02:32:02.754Z,67.40
2018-05-09T02:34:03.726Z,67.60
2018-05-09T02:36:04.751Z,67.60
2018-05-09T02:38:05.749Z,67.50
2018-05-09T02:40:06.739Z,67.80
2018-05-09T02:42:07.763Z,68.00
2018-05-09T02:44:08.766Z,68.10
2018-05-09T02:46:16.702Z,68.10
2018-05-09T02:48:17.701Z,68.00
2018-05-09T02:50:19.233Z,68.20
2018-05-09T02:52:20.234Z,68.20
2018-05-09T02:54:22.127Z,68.20
2018-05-09T02:56:23.138Z,68.20
2018-05-09T02:58:24.110Z,67.70
2018-05-09T03:00:25.855Z,68.10
2018-05-09T03:02:26.834Z,68.10
2018-05-09T03:04:27.815Z,68.40
2018-05-09T03:06:29.159Z,68.50
2018-05-09T03:08:30.146Z,68.20
2018-05-09T03:10:31.114Z,68.20
2018-05-09T03:12:32.101Z,68.30
2018-05-09T03:14:33.075Z,68.40
2018-05-09T03:16:34.079Z,68.60
2018-05-09T03:18:35.066Z,68.90
2018-05-09T03:20:36.034Z,68.70
2018-05-09T03:22:37.139Z,68.70
2018-05-09T03:24:38.111Z,68.60
2018-05-09T03:26:39.099Z,68.60
2018-05-09T03:28:40.099Z,68.70
2018-05-09T03:30:41.064Z,68.60
2018-05-09T03:32:42.050Z,68.60
2018-05-09T03:34:43.027Z,68.40
2018-05-09T03:36:44.019Z,68.60
2018-05-09T03:38:45.123Z,68.60
2018-05-09T03:40:46.098Z,68.80
2018-05-09T03:42:47.077Z,68.50
2018-05-09T03:44:48.062Z,68.40
2018-05-09T03:46:49.027Z,68.40
2018-05-09T03:48:50.003Z,68.40
2018-05-09T03:50:51.380Z,68.40
2018-05-09T03:52:52.374Z,68.40
2018-05-09T03:54:53.382Z,68.60
2018-05-09T03:56:54.362Z,69.40
2018-05-09T03:58:55.706Z,69.90
2018-05-09T04:00:57.074Z,69.90
2018-05-09T04:03:10.338Z,69.90
2018-05-09T04:05:23.773Z,70.00
2018-05-09T04:07:37.203Z,70.40
2018-05-09T04:09:48.290Z,70.50
2018-05-09T04:11:49.270Z,70.60
2018-05-09T04:15:58.714Z,71.00
2018-05-09T04:17:59.874Z,71.00
2018-05-09T04:20:01.581Z,71.10
2018-05-09T04:22:02.943Z,71.10
2018-05-09T04:24:04.235Z,71.10
2018-05-09T04:26:05.291Z,70.40
2018-05-09T04:28:06.677Z,70.40
2018-05-09T04:30:08.441Z,70.50
2018-05-09T04:32:09.398Z,70.60
2018-05-09T04:34:10.785Z,71.10
2018-05-09T04:36:11.892Z,71.20
2018-05-09T04:38:12.782Z,70.90
2018-05-09T04:40:13.762Z,71.10
2018-05-09T04:42:15.482Z,69.60
2018-05-09T04:46:19.358Z,69.70
2018-05-09T04:48:20.353Z,69.30
2018-05-09T04:50:21.339Z,69.20
2018-05-09T04:52:23.078Z,68.90
2018-05-09T04:54:24.063Z,68.90
2018-05-09T04:56:25.050Z,68.80
2018-05-09T04:58:26.030Z,69.40
2018-05-09T05:00:27.003Z,69.10
2018-05-09T05:02:28.738Z,68.90
2018-05-09T05:04:29.711Z,68.90
2018-05-09T05:06:30.702Z,68.70
2018-05-09T05:08:31.721Z,68.40
2018-05-09T05:10:32.685Z,68.40
2018-05-09T05:12:34.041Z,69.20
2018-05-09T05:14:36.611Z,68.30
2018-05-09T05:16:38.130Z,67.90
2018-05-09T05:18:39.240Z,68.00
2018-05-09T05:20:40.531Z,68.00
2018-05-09T05:22:41.877Z,68.50
2018-05-09T05:24:43.614Z,68.10
2018-05-09T05:26:44.782Z,68.20
2018-05-09T05:28:45.770Z,68.20
2018-05-09T05:30:46.786Z,67.30
2018-05-09T05:32:47.786Z,66.80
2018-05-09T05:34:49.170Z,67.30
2018-05-09T05:36:50.159Z,66.60
2018-05-09T05:38:51.929Z,66.70
2018-05-09T05:40:54.603Z,66.70
2018-05-09T05:42:55.599Z,66.70
2018-05-09T05:44:56.646Z,66.50
2018-05-09T05:46:57.970Z,65.70
2018-05-09T05:48:58.947Z,65.40
2018-05-09T05:50:59.950Z,65.40
2018-05-09T05:53:00.923Z,64.80
2018-05-09T05:55:01.901Z,65.70
2018-05-09T05:57:02.975Z,64.80
2018-05-09T05:59:04.326Z,64.70
2018-05-09T06:01:05.337Z,64.70
2018-05-09T06:03:06.505Z,63.70
2018-05-09T06:05:07.569Z,63.90
2018-05-09T06:07:08.566Z,64.50
2018-05-09T06:09:09.931Z,64.00
2018-05-09T06:11:10.906Z,64.00
2018-05-09T06:13:11.887Z,63.00
2018-05-09T06:15:13.182Z,63.40
2018-05-09T06:17:14.239Z,62.60
2018-05-09T06:19:15.902Z,62.40
2018-05-09T06:21:17.237Z,62.90
2018-05-09T06:23:18.326Z,62.90
2018-05-09T06:25:19.305Z,62.90
2018-05-09T06:27:20.298Z,62.40
2018-05-09T06:29:21.315Z,61.00
2018-05-09T06:31:22.290Z,61.40
2018-05-09T06:33:23.261Z,60.80
2018-05-09T06:35:24.628Z,60.90
2018-05-09T06:37:25.606Z,60.90
2018-05-09T06:39:26.607Z,60.30
2018-05-09T06:41:27.594Z,60.10
2018-05-09T06:43:28.562Z,59.50
2018-05-09T06:45:29.527Z,59.10
2018-05-09T06:47:30.544Z,59.30
2018-05-09T06:49:31.695Z,59.70
2018-05-09T06:51:32.675Z,59.40
2018-05-09T06:53:33.665Z,59.30
2018-05-09T06:57:42.455Z,58.50
2018-05-09T06:59:43.976Z,57.80
2018-05-09T07:01:44.967Z,57.80
2018-05-09T07:03:45.955Z,57.20
2018-05-09T07:05:46.926Z,58.20
2018-05-09T07:07:47.878Z,57.10
2018-05-09T07:09:48.858Z,57.50
2018-05-09T07:11:49.862Z,58.10
2018-05-09T07:13:50.843Z,57.00
2018-05-09T07:15:59.287Z,56.50
2018-05-09T07:18:00.266Z,56.50
2018-05-09T07:20:01.254Z,55.90
2018-05-09T07:22:02.231Z,56.20
2018-05-09T07:24:03.230Z,55.20
2018-05-09T07:26:04.224Z,56.10
2018-05-09T07:28:05.569Z,56.40
2018-05-09T07:30:06.922Z,55.30
2018-05-09T07:32:08.279Z,55.40
2018-05-09T07:34:09.474Z,55.40
2018-05-09T07:36:10.473Z,55.60
2018-05-09T07:38:11.445Z,53.90
2018-05-09T07:40:12.690Z,54.80
2018-05-09T07:42:13.695Z,55.40
2018-05-09T07:44:14.638Z,54.10
2018-05-09T07:46:15.637Z,54.30
2018-05-09T07:48:16.626Z,54.50
2018-05-09T07:50:17.849Z,53.90
2018-05-09T07:52:18.820Z,55.10
2018-05-09T07:54:20.174Z,53.30
2018-05-09T07:56:21.534Z,53.00
2018-05-09T08:00:30.753Z,54.00
2018-05-09T08:02:32.146Z,53.70
2018-05-09T08:04:33.142Z,53.70
2018-05-09T08:06:34.103Z,51.20
2018-05-09T08:08:35.086Z,51.90
2018-05-09T08:10:36.078Z,52.10
2018-05-09T08:12:37.059Z,52.20
2018-05-09T08:14:38.447Z,52.40
2018-05-09T08:16:39.430Z,52.40
2018-05-09T08:18:40.397Z,52.50
2018-05-09T08:20:41.390Z,52.10
2018-05-09T08:22:42.639Z,51.40
2018-05-09T08:24:43.626Z,51.90
2018-05-09T08:26:44.666Z,51.70
2018-05-09T08:28:45.686Z,52.40
2018-05-09T08:30:46.681Z,51.70
2018-05-09T08:32:47.661Z,51.70
2018-05-09T08:34:48.633Z,50.30
2018-05-09T08:36:49.603Z,50.90
2018-05-09T08:38:51.130Z,51.30
2018-05-09T08:40:52.122Z,51.30
2018-05-09T08:42:53.123Z,50.70
2018-05-09T08:44:54.469Z,50.50
2018-05-09T08:46:55.819Z,50.40
2018-05-09T08:48:56.814Z,50.40
2018-05-09T08:50:57.855Z,49.10
2018-05-09T08:52:58.843Z,49.60
2018-05-09T08:54:59.838Z,49.90
2018-05-09T08:57:01.198Z,49.10
2018-05-09T08:59:02.547Z,49.90
2018-05-09T09:01:03.549Z,49.90
2018-05-09T09:03:04.526Z,49.70
2018-05-09T09:05:05.557Z,49.10
2018-05-09T09:07:06.666Z,49.80
2018-05-09T09:09:07.646Z,49.30
2018-05-09T09:11:08.634Z,47.70
2018-05-09T09:13:09.625Z,47.90
2018-05-09T09:15:10.717Z,48.10
2018-05-09T09:17:11.718Z,48.40
2018-05-09T09:19:12.711Z,48.50
2018-05-09T09:21:13.702Z,48.60
2018-05-09T09:23:14.670Z,49.00
2018-05-09T09:25:16.066Z,47.60
2018-05-09T09:27:17.045Z,47.60
2018-05-09T09:29:18.070Z,47.90
2018-05-09T09:31:19.018Z,46.30
2018-05-09T09:33:20.027Z,47.20
2018-05-09T09:35:21.042Z,46.80
2018-05-09T09:37:22.022Z,47.30
2018-05-09T09:39:23.411Z,46.40
2018-05-09T09:41:24.377Z,46.40
2018-05-09T09:43:25.742Z,47.00
2018-05-09T09:45:27.123Z,46.60
2018-05-09T09:47:28.093Z,46.60
2018-05-09T09:49:29.054Z,46.90
2018-05-09T09:51:30.395Z,46.20
2018-05-09T09:53:31.766Z,45.20
2018-05-09T09:55:32.882Z,45.20
2018-05-09T09:57:34.238Z,44.90
2018-05-09T09:59:35.230Z,44.90
2018-05-09T10:01:36.273Z,44.30
2018-05-09T10:03:37.178Z,44.10
2018-05-09T10:05:38.254Z,44.10
2018-05-09T10:07:39.619Z,43.80
2018-05-09T10:09:40.581Z,43.80
2018-05-09T10:11:41.846Z,43.90
2018-05-09T10:13:42.839Z,44.50
2018-05-09T10:15:43.838Z,44.10
2018-05-09T10:17:44.870Z,44.40
2018-05-09T10:19:45.863Z,44.10
2018-05-09T10:21:46.826Z,44.40
2018-05-09T10:23:47.850Z,44.80
2018-05-09T10:25:48.842Z,45.30
2018-05-09T10:27:49.811Z,45.20
2018-05-09T10:29:50.785Z,43.30
2018-05-09T10:31:52.326Z,43.10
2018-05-09T10:33:53.293Z,43.10
2018-05-09T10:35:54.494Z,44.30
2018-05-09T10:37:55.474Z,44.40
2018-05-09T10:39:56.470Z,43.10
2018-05-09T10:41:57.466Z,44.60
2018-05-09T10:43:58.453Z,43.70
2018-05-09T10:45:59.818Z,44.00
2018-05-09T10:48:01.135Z,44.00
2018-05-09T10:50:02.515Z,42.50
2018-05-09T10:52:03.519Z,42.50
2018-05-09T10:54:04.897Z,41.80
2018-05-09T10:56:05.890Z,41.80
2018-05-09T10:58:06.916Z,41.50
2018-05-09T11:00:07.887Z,42.10
2018-05-09T11:02:08.846Z,42.00
2018-05-09T11:04:09.846Z,40.80
2018-05-09T11:06:11.167Z,41.20
2018-05-09T11:08:12.176Z,41.30
2018-05-09T11:10:13.139Z,40.90
2018-05-09T11:12:14.135Z,41.80
2018-05-09T11:14:22.054Z,41.80
2018-05-09T11:16:23.056Z,41.30
2018-05-09T11:18:24.059Z,40.60
2018-05-09T11:20:25.458Z,39.70
2018-05-09T11:22:26.466Z,39.80
2018-05-09T11:24:27.457Z,40.60
2018-05-09T11:26:28.390Z,41.20
2018-05-09T11:28:29.758Z,42.50
2018-05-09T11:30:30.750Z,42.50
2018-05-09T11:32:31.750Z,40.80
2018-05-09T11:34:32.931Z,41.50
2018-05-09T11:36:33.922Z,40.80
2018-05-09T11:38:34.934Z,40.70
2018-05-09T11:40:35.906Z,40.30
2018-05-09T11:42:36.881Z,40.40
2018-05-09T11:44:38.242Z,41.40
2018-05-09T11:46:39.618Z,41.40
2018-05-09T11:48:40.601Z,41.40
2018-05-09T11:50:41.570Z,39.80
2018-05-09T11:52:49.620Z,40.30
2018-05-09T11:54:50.643Z,40.40
2018-05-09T11:56:51.614Z,40.40
2018-05-09T11:58:52.958Z,40.00
2018-05-09T12:00:54.308Z,39.00
2018-05-09T12:02:55.656Z,39.10
2018-05-09T12:04:56.997Z,39.00
2018-05-09T12:06:58.733Z,39.30
2018-05-09T12:08:59.698Z,39.30
2018-05-09T12:11:00.694Z,38.20
2018-05-09T12:13:01.702Z,38.60
2018-05-09T12:15:02.703Z,38.30
2018-05-09T12:17:03.701Z,38.40
2018-05-09T12:19:04.665Z,39.00
2018-05-09T12:21:06.028Z,38.40
2018-05-09T12:23:07.020Z,38.40
2018-05-09T12:25:08.045Z,38.70
2018-05-09T12:27:09.034Z,38.30
2018-05-09T12:29:10.004Z,38.90
2018-05-09T12:31:10.990Z,39.00
2018-05-09T12:33:12.135Z,38.60
2018-05-09T12:35:13.255Z,37.60
2018-05-09T12:37:14.599Z,37.30
2018-05-09T12:39:15.966Z,36.50
2018-05-09T12:41:16.942Z,36.50
2018-05-09T12:43:17.934Z,35.80
2018-05-09T12:45:18.934Z,37.20
2018-05-09T12:47:19.943Z,37.40
2018-05-09T12:49:20.922Z,36.30
2018-05-09T12:51:22.278Z,35.90
2018-05-09T12:53:23.247Z,35.90
2018-05-09T12:55:24.231Z,36.80
2018-05-09T12:57:25.590Z,37.10
2018-05-09T12:59:26.591Z,37.10
2018-05-09T13:01:27.578Z,36.80
2018-05-09T13:03:28.538Z,36.30
2018-05-09T13:05:29.538Z,36.20
2018-05-09T13:07:30.563Z,35.10
2018-05-09T13:09:31.549Z,35.30
2018-05-09T13:11:32.566Z,34.40
2018-05-09T13:13:33.587Z,35.40
2018-05-09T13:15:34.554Z,34.40
2018-05-09T13:17:35.531Z,34.50
2018-05-09T13:19:36.880Z,34.30
2018-05-09T13:21:37.859Z,34.30
2018-05-09T13:23:38.873Z,33.20
2018-05-09T13:25:39.867Z,32.60
2018-05-09T13:27:41.231Z,33.60
2018-05-09T13:29:42.258Z,33.60
2018-05-09T13:31:43.664Z,33.60
2018-05-09T13:33:44.613Z,33.60
2018-05-09T13:35:45.606Z,33.40
2018-05-09T13:37:46.586Z,32.70
2018-05-09T13:39:47.643Z,32.60
2018-05-09T13:41:48.543Z,32.80
2018-05-09T13:43:49.506Z,33.70
2018-05-09T13:45:50.859Z,31.90
2018-05-09T13:47:51.854Z,31.90
2018-05-09T13:49:52.850Z,31.30
2018-05-09T13:51:53.823Z,31.90
2018-05-09T13:53:54.926Z,31.50
2018-05-09T13:55:55.810Z,31.30
2018-05-09T13:57:56.806Z,32.60
2018-05-09T13:59:57.868Z,33.60
2018-05-09T14:01:58.826Z,32.00
2018-05-09T14:04:00.190Z,32.90
2018-05-09T14:06:01.157Z,32.90
2018-05-09T14:08:02.144Z,33.70
2018-05-09T14:10:03.191Z,33.00
2018-05-09T14:12:04.178Z,34.00
2018-05-09T14:14:05.175Z,33.40
2018-05-09T14:16:06.534Z,34.80
2018-05-09T14:18:07.507Z,34.80
2018-05-09T14:20:08.492Z,34.10
2018-05-09T14:22:09.626Z,33.30
2018-05-09T14:24:10.595Z,34.60
2018-05-09T14:26:11.578Z,36.30
2018-05-09T14:28:12.579Z,36.00
2018-05-09T14:30:13.574Z,34.40
2018-05-09T14:32:14.598Z,35.10
2018-05-09T14:34:16.818Z,35.30
2018-05-09T14:36:17.794Z,35.30
2018-05-09T14:38:18.759Z,35.20
2018-05-09T14:40:19.742Z,34.50
2018-05-09T14:42:21.094Z,36.10
2018-05-09T14:44:22.274Z,36.20
2018-05-09T14:46:23.278Z,36.70
2018-05-09T14:48:24.275Z,37.80
2018-05-09T14:50:25.311Z,39.00
2018-05-09T14:52:26.319Z,39.50
2018-05-09T14:54:27.367Z,40.40
2018-05-09T14:56:28.326Z,40.50
2018-05-09T14:58:30.031Z,39.60
2018-05-09T15:00:31.310Z,40.00
2018-05-09T15:02:32.310Z,40.30
2018-05-09T15:04:33.279Z,39.50
2018-05-09T15:06:34.281Z,39.50
2018-05-09T15:08:35.277Z,39.40
2018-05-09T15:10:36.622Z,39.70
2018-05-09T15:12:37.990Z,41.30
2018-05-09T15:14:39.174Z,41.30
2018-05-09T15:16:40.742Z,41.50
2018-05-09T15:18:42.122Z,41.20
2018-05-09T15:20:43.111Z,41.20
2018-05-09T15:22:44.085Z,40.80
2018-05-09T15:24:45.074Z,41.60
2018-05-09T15:26:46.034Z,42.20
2018-05-09T15:28:47.382Z,42.70
2018-05-09T15:30:48.414Z,42.70
2018-05-09T15:32:49.786Z,43.20
2018-05-09T15:34:50.760Z,43.20
2018-05-09T15:36:51.774Z,42.00
2018-05-09T15:38:52.827Z,42.40
2018-05-09T15:40:53.719Z,42.80
2018-05-09T15:42:54.795Z,42.50
2018-05-09T15:44:55.763Z,42.60
2018-05-09T15:46:57.128Z,43.40
2018-05-09T15:48:58.106Z,43.40
2018-05-09T15:50:59.086Z,43.60
2018-05-09T15:53:00.066Z,44.20
2018-05-09T15:55:01.182Z,43.90
2018-05-09T15:57:02.170Z,43.80
2018-05-09T15:59:03.181Z,43.90
2018-05-09T16:01:04.194Z,44.10
2018-05-09T16:03:05.181Z,43.20
2018-05-09T16:05:06.527Z,43.90
2018-05-09T16:07:07.918Z,44.20
2018-05-09T16:09:08.894Z,44.20
2018-05-09T16:11:09.865Z,44.20
2018-05-09T16:13:10.875Z,44.10
2018-05-09T16:15:12.213Z,44.60
2018-05-09T16:17:13.559Z,44.30
2018-05-09T16:19:14.912Z,44.20
2018-05-09T16:21:16.350Z,43.70
2018-05-09T16:23:17.766Z,44.00
2018-05-09T16:25:18.773Z,44.00
2018-05-09T16:27:19.786Z,44.40
2018-05-09T16:29:20.791Z,44.40
2018-05-09T16:31:21.771Z,44.50
2018-05-09T16:33:22.987Z,44.00
2018-05-09T16:35:24.313Z,44.40
2018-05-09T16:37:25.281Z,44.40
2018-05-09T16:39:26.278Z,44.60
2018-05-09T16:41:27.275Z,44.10
2018-05-09T16:43:28.263Z,44.40
2018-05-09T16:45:29.602Z,43.60
2018-05-09T16:47:30.942Z,43.60
2018-05-09T16:49:32.575Z,43.40
2018-05-09T16:51:33.558Z,43.40
2018-05-09T16:53:34.512Z,44.10
2018-05-09T16:55:35.563Z,44.60
2018-05-09T16:57:36.594Z,45.10
2018-05-09T16:59:37.630Z,45.60
2018-05-09T17:01:38.579Z,46.10
2018-05-09T17:03:39.582Z,46.10
2018-05-09T17:05:40.562Z,46.20
2018-05-09T17:07:41.531Z,46.30
2018-05-09T17:09:49.431Z,46.30
2018-05-09T17:11:50.402Z,46.50
2018-05-09T17:13:51.374Z,46.60
2018-05-09T17:15:52.727Z,46.70
2018-05-09T17:17:54.151Z,47.00
2018-05-09T17:19:55.126Z,47.00
2018-05-09T17:22:14.654Z,47.00
2018-05-09T17:24:15.838Z,47.10
2018-05-09T17:26:16.790Z,46.80
2018-05-09T17:28:17.772Z,46.80
2018-05-09T17:30:18.822Z,46.70
2018-05-09T17:32:19.734Z,46.90
2018-05-09T17:34:20.886Z,46.90
2018-05-09T17:36:22.242Z,47.50
2018-05-09T17:38:23.593Z,47.60
2018-05-09T17:40:24.570Z,47.60
2018-05-09T17:42:25.584Z,47.30
2018-05-09T17:44:26.550Z,47.80
2018-05-09T17:46:27.526Z,47.90
2018-05-09T17:48:28.877Z,48.00
2018-05-09T17:50:29.852Z,48.00
2018-05-09T17:52:30.845Z,48.10
2018-05-09T17:54:31.818Z,48.30
2018-05-09T17:56:32.806Z,48.50
2018-05-09T17:58:34.177Z,48.40
2018-05-09T18:00:35.139Z,48.40
2018-05-09T18:02:36.098Z,48.60
2018-05-09T18:04:37.084Z,48.80
2018-05-09T18:06:38.066Z,48.90
2018-05-09T18:08:39.043Z,48.40
2018-05-09T18:10:40.038Z,48.80
2018-05-09T18:12:41.013Z,48.70
2018-05-09T18:14:42.083Z,48.90
2018-05-09T18:16:43.016Z,49.10
2018-05-09T18:18:44.138Z,49.10
2018-05-09T18:20:45.139Z,49.20
2018-05-09T18:22:46.498Z,49.50
2018-05-09T18:24:47.498Z,49.50
2018-05-09T18:26:48.534Z,49.40
2018-05-09T18:28:49.469Z,49.60
2018-05-09T18:30:50.799Z,49.90
2018-05-09T18:32:51.786Z,49.90
2018-05-09T18:34:52.809Z,49.90
2018-05-09T18:36:53.905Z,50.00
2018-05-09T18:38:54.907Z,50.30
2018-05-09T18:40:55.900Z,50.10
2018-05-09T18:42:57.262Z,50.40
2018-05-09T18:44:58.591Z,50.40
2018-05-09T18:46:59.918Z,50.70
2018-05-09T18:49:00.902Z,50.70
2018-05-09T18:51:01.897Z,50.70
2018-05-09T18:53:03.243Z,51.10
2018-05-09T18:55:04.587Z,51.40
2018-05-09T18:57:05.991Z,51.40
2018-05-09T18:59:07.046Z,51.40
2018-05-09T19:01:08.023Z,51.70
2018-05-09T19:03:08.997Z,52.30
2018-05-09T19:05:10.037Z,52.60
2018-05-09T19:07:11.015Z,53.00
2018-05-09T19:09:11.998Z,53.30
2018-05-09T19:11:12.981Z,53.40
2018-05-09T19:13:14.373Z,54.50
2018-05-09T19:15:15.346Z,54.50
2018-05-09T19:17:16.691Z,55.40
2018-05-09T19:19:18.317Z,55.90
2018-05-09T19:21:19.283Z,55.90
2018-05-09T19:23:20.632Z,56.60
2018-05-09T19:25:21.997Z,56.80
2018-05-09T19:27:22.979Z,56.80
2018-05-09T19:29:23.971Z,56.80
2018-05-09T19:31:24.947Z,57.80
2018-05-09T19:33:25.918Z,58.40
2018-05-09T19:35:26.906Z,58.50
2018-05-09T19:37:27.898Z,58.80
2018-05-09T19:39:28.870Z,58.70
2018-05-09T19:41:29.851Z,59.00
2018-05-09T19:43:31.362Z,59.50
2018-05-09T19:45:32.311Z,59.50
2018-05-09T19:47:33.295Z,59.60
2018-05-09T19:49:34.280Z,59.90
2018-05-09T19:51:35.266Z,60.10
2018-05-09T19:53:36.253Z,60.30
2018-05-09T19:55:37.239Z,60.30
2018-05-09T19:57:38.466Z,61.10
2018-05-09T19:59:39.454Z,61.40
2018-05-09T20:01:40.684Z,62.10
2018-05-09T20:03:41.705Z,61.90
2018-05-09T20:05:42.694Z,62.00
2018-05-09T20:07:44.088Z,62.10
2018-05-09T20:09:45.099Z,62.20
2018-05-09T20:11:46.107Z,62.60
2018-05-09T20:13:47.460Z,62.80
2018-05-09T20:15:48.798Z,62.70
2018-05-09T20:17:50.310Z,62.60
2018-05-09T20:19:51.290Z,62.60
2018-05-09T20:21:52.257Z,62.80
2018-05-09T20:23:53.257Z,63.00
2018-05-09T20:25:54.235Z,63.40
2018-05-09T20:27:55.230Z,63.90
2018-05-09T20:29:56.234Z,63.90
2018-05-09T20:34:49.353Z,64.40
2018-05-09T20:36:51.114Z,64.70
2018-05-09T20:38:52.107Z,64.70
2018-05-09T20:40:53.466Z,65.10
2018-05-09T20:42:54.774Z,65.10
2018-05-09T20:44:55.745Z,65.30
2018-05-09T20:46:56.718Z,65.50
2018-05-09T20:48:57.701Z,65.80
2018-05-09T20:50:59.051Z,66.10
2018-05-09T20:53:00.295Z,66.10
2018-05-09T20:55:13.686Z,65.90
2018-05-09T20:57:14.650Z,65.80
2018-05-09T20:59:15.657Z,65.70
2018-05-09T21:01:32.707Z,65.60
2018-05-09T21:03:33.677Z,65.50
2018-05-09T21:05:34.710Z,65.80
2018-05-09T21:07:47.984Z,65.50
2018-05-09T21:09:49.320Z,65.80
2018-05-09T21:12:03.255Z,65.80
2018-05-09T21:14:04.618Z,66.00
2018-05-09T21:16:05.602Z,66.00
2018-05-09T21:18:06.622Z,66.00
2018-05-09T21:20:07.814Z,65.80
2018-05-09T21:22:08.750Z,66.20
2018-05-09T21:24:10.134Z,66.60
2018-05-09T21:26:11.119Z,66.60
2018-05-09T21:28:12.525Z,66.70
2018-05-09T21:30:13.518Z,66.70
2018-05-09T21:32:14.531Z,66.00
2018-05-09T21:34:15.898Z,65.90
2018-05-09T21:36:16.863Z,65.90
2018-05-09T21:38:17.864Z,66.00
2018-05-09T21:40:19.255Z,66.60
2018-05-09T21:42:20.239Z,66.60
2018-05-09T21:44:21.662Z,66.20
2018-05-09T21:46:22.682Z,66.20
2018-05-09T21:48:23.647Z,66.50
2018-05-09T21:50:25.102Z,66.10
2018-05-09T21:52:26.094Z,66.10
2018-05-09T21:54:27.067Z,66.10
2018-05-09T21:56:28.442Z,66.90
2018-05-09T21:58:29.426Z,66.90
2018-05-09T22:00:30.426Z,66.80
2018-05-09T22:02:31.402Z,66.80
2018-05-09T22:04:32.463Z,66.90
2018-05-09T22:06:33.443Z,67.30
2018-05-09T22:08:34.459Z,67.50
2018-05-09T22:10:35.498Z,67.70
2018-05-09T22:12:36.500Z,67.60
2018-05-09T22:14:38.129Z,67.00
2018-05-09T22:16:39.486Z,67.40
2018-05-09T22:18:40.840Z,67.40
2018-05-09T22:20:41.810Z,67.40
2018-05-09T22:22:42.810Z,67.10
2018-05-09T22:24:43.773Z,66.90
2018-05-09T22:26:44.750Z,67.30
2018-05-09T22:28:45.747Z,66.90
2018-05-09T22:30:46.742Z,66.40
2018-05-09T22:32:48.081Z,66.60
2018-05-09T22:34:49.426Z,66.80
2018-05-09T22:36:50.783Z,66.20
2018-05-09T22:38:51.897Z,66.20
2018-05-09T22:40:53.525Z,66.30
2018-05-09T22:42:54.510Z,66.30
2018-05-09T22:44:55.478Z,66.30
2018-05-09T22:49:04.170Z,65.90
2018-05-09T22:51:05.162Z,65.80
2018-05-09T22:53:06.150Z,66.10
2018-05-09T22:55:07.135Z,65.80
2018-05-09T22:57:08.170Z,66.00
2018-05-09T22:59:09.145Z,66.50
2018-05-09T23:01:10.123Z,67.10
2018-05-09T23:03:11.114Z,67.10
2018-05-09T23:05:12.099Z,67.40
2018-05-09T23:07:13.087Z,67.10
2018-05-09T23:09:14.103Z,67.10
2018-05-09T23:11:15.447Z,67.30
2018-05-09T23:13:16.429Z,67.30
2018-05-09T23:15:17.613Z,67.20
2018-05-09T23:17:18.946Z,67.50
2018-05-09T23:19:19.937Z,67.50
2018-05-09T23:21:20.928Z,67.50
2018-05-09T23:23:22.293Z,68.20
2018-05-09T23:25:23.275Z,68.20
2018-05-09T23:27:24.250Z,68.70
2018-05-09T23:29:25.607Z,69.10
2018-05-09T23:31:26.595Z,69.10
2018-05-09T23:33:27.578Z,69.10
2018-05-09T23:35:28.563Z,69.10
2018-05-09T23:37:29.570Z,68.80
2018-05-09T23:39:30.530Z,69.10
2018-05-09T23:41:31.511Z,68.90
2018-05-09T23:43:32.669Z,69.00
2018-05-09T23:45:33.631Z,69.10
2018-05-09T23:47:34.606Z,69.30
2018-05-09T23:49:35.962Z,69.40
2018-05-09T23:51:36.954Z,69.40
2018-05-09T23:53:37.934Z,69.20
2018-05-09T23:55:38.975Z,68.90
2018-05-09T23:57:39.913Z,68.70
2018-05-09T23:59:40.926Z,68.60
